createdAt,value
2019-03-09T00:00:56.538Z,78.40
2019-03-09T00:03:25.147Z,79.00
2019-03-09T00:05:54.794Z,78.90
2019-03-09T00:08:24.749Z,78.80
2019-03-09T00:10:53.510Z,78.70
2019-03-09T00:13:21.934Z,79.10
2019-03-09T00:15:50.745Z,78.90
2019-03-09T00:18:19.262Z,79.00
2019-03-09T00:20:47.781Z,79.10
2019-03-09T00:23:34.322Z,79.20
2019-03-09T00:29:05.317Z,79.30
2019-03-09T00:34:25.680Z,80.10
2019-03-09T00:36:54.307Z,80.50
2019-03-09T00:39:22.745Z,80.10
2019-03-09T00:41:51.201Z,80.00
2019-03-09T00:44:19.653Z,80.50
2019-03-09T00:46:48.069Z,80.40
2019-03-09T00:49:16.505Z,80.40
2019-03-09T00:51:44.944Z,81.00
2019-03-09T00:54:15.121Z,81.20
2019-03-09T00:56:43.541Z,81.30
2019-03-09T00:59:11.970Z,81.20
2019-03-09T01:01:40.421Z,81.30
2019-03-09T01:04:08.851Z,81.30
2019-03-09T01:06:37.300Z,81.10
2019-03-09T01:09:07.964Z,81.70
2019-03-09T01:11:36.390Z,81.90
2019-03-09T01:14:05.099Z,81.50
2019-03-09T01:16:33.545Z,81.40
2019-03-09T01:19:01.975Z,81.30
2019-03-09T01:21:30.394Z,82.80
2019-03-09T01:23:58.822Z,83.00
2019-03-09T01:26:27.340Z,84.20
2019-03-09T01:28:55.789Z,85.60
2019-03-09T01:31:24.228Z,85.20
2019-03-09T01:33:52.739Z,87.40
2019-03-09T01:36:21.188Z,86.90
2019-03-09T01:38:49.605Z,87.40
2019-03-09T01:41:18.067Z,88.00
2019-03-09T01:43:46.478Z,87.80
2019-03-09T01:46:14.898Z,87.60
2019-03-09T01:48:43.349Z,88.50
2019-03-09T01:51:11.765Z,88.30
2019-03-09T01:53:40.211Z,88.30
2019-03-09T01:56:08.656Z,88.70
2019-03-09T01:58:37.093Z,88.70
2019-03-09T02:01:05.608Z,88.50
2019-03-09T02:03:34.014Z,88.40
2019-03-09T02:06:02.453Z,88.50
2019-03-09T02:08:30.881Z,88.70
2019-03-09T02:10:59.301Z,88.70
2019-03-09T02:13:27.748Z,88.80
2019-03-09T02:15:56.180Z,89.20
2019-03-09T02:18:24.633Z,89.30
2019-03-09T02:20:53.113Z,89.70
2019-03-09T02:23:21.537Z,89.80
2019-03-09T02:25:49.962Z,89.90
2019-03-09T02:28:18.417Z,90.30
2019-03-09T02:30:46.857Z,90.40
2019-03-09T02:33:15.366Z,90.30
2019-03-09T02:35:43.799Z,90.40
2019-03-09T02:38:29.238Z,90.70
2019-03-09T02:40:57.654Z,90.70
2019-03-09T02:43:26.119Z,90.80
2019-03-09T02:45:54.583Z,90.80
2019-03-09T02:48:23.004Z,91.00
2019-03-09T02:50:57.331Z,91.30
2019-03-09T02:53:26.656Z,91.50
2019-03-09T02:55:55.166Z,91.70
2019-03-09T02:58:23.676Z,91.70
2019-03-09T03:01:05.435Z,91.70
2019-03-09T03:03:33.877Z,91.70
2019-03-09T03:06:02.388Z,91.30
2019-03-09T03:08:30.819Z,91.60
2019-03-09T03:10:59.302Z,91.80
2019-03-09T03:13:27.779Z,91.90
2019-03-09T03:15:56.194Z,92.10
2019-03-09T03:18:24.653Z,92.20
2019-03-09T03:20:53.074Z,92.30
2019-03-09T03:23:21.537Z,92.30
2019-03-09T03:25:49.978Z,92.20
2019-03-09T03:28:18.417Z,92.30
2019-03-09T03:30:46.858Z,92.30
2019-03-09T03:33:15.300Z,92.20
2019-03-09T03:35:43.794Z,92.50
2019-03-09T03:38:12.245Z,92.40
2019-03-09T03:40:40.672Z,92.50
2019-03-09T03:43:09.184Z,92.40
2019-03-09T03:45:37.625Z,92.60
2019-03-09T03:48:06.052Z,92.60
2019-03-09T03:50:34.493Z,93.00
2019-03-09T03:53:02.926Z,93.20
2019-03-09T03:55:31.349Z,93.30
2019-03-09T03:57:59.788Z,93.30
2019-03-09T04:00:28.237Z,93.60
2019-03-09T04:02:56.755Z,93.60
2019-03-09T04:05:25.256Z,93.70
2019-03-09T04:07:53.682Z,93.70
2019-03-09T04:10:22.293Z,93.70
2019-03-09T04:12:51.482Z,93.60
2019-03-09T04:15:20.015Z,93.60
2019-03-09T04:17:48.551Z,93.80
2019-03-09T04:20:17.009Z,93.60
2019-03-09T04:22:45.461Z,93.90
2019-03-09T04:25:13.953Z,94.00
2019-03-09T04:27:42.469Z,94.20
2019-03-09T04:30:12.996Z,94.40
2019-03-09T04:32:41.509Z,94.20
2019-03-09T04:35:10.081Z,94.50
2019-03-09T04:37:38.584Z,94.90
2019-03-09T04:40:09.272Z,94.90
2019-03-09T04:42:37.713Z,95.00
2019-03-09T04:45:09.537Z,94.80
2019-03-09T04:47:37.965Z,95.00
2019-03-09T04:50:11.082Z,95.10
2019-03-09T04:52:39.518Z,95.50
2019-03-09T04:55:09.185Z,95.20
2019-03-09T04:57:37.636Z,95.20
2019-03-09T05:00:30.957Z,95.10
2019-03-09T05:02:59.377Z,95.10
2019-03-09T05:05:27.820Z,95.50
2019-03-09T05:07:59.321Z,95.60
2019-03-09T05:10:30.818Z,95.60
2019-03-09T05:13:09.806Z,95.60
2019-03-09T05:15:38.222Z,95.50
2019-03-09T05:18:06.662Z,95.40
2019-03-09T05:20:35.086Z,95.60
2019-03-09T05:23:03.510Z,95.20
2019-03-09T05:25:31.964Z,94.50
2019-03-09T05:28:00.373Z,94.70
2019-03-09T05:30:39.217Z,95.10
2019-03-09T05:33:07.926Z,94.50
2019-03-09T05:35:36.432Z,94.60
2019-03-09T05:38:05.099Z,94.20
2019-03-09T05:40:33.528Z,94.20
2019-03-09T05:43:01.968Z,93.90
2019-03-09T05:45:30.441Z,93.60
2019-03-09T05:47:58.900Z,93.50
2019-03-09T05:50:27.339Z,93.40
2019-03-09T05:53:07.744Z,93.00
2019-03-09T05:55:36.179Z,93.20
2019-03-09T05:58:04.663Z,92.90
2019-03-09T06:00:34.057Z,92.80
2019-03-09T06:03:02.485Z,92.90
2019-03-09T06:05:36.264Z,92.70
2019-03-09T06:08:05.517Z,92.70
2019-03-09T06:10:33.963Z,92.50
2019-03-09T06:13:02.382Z,92.40
2019-03-09T06:15:30.884Z,92.60
2019-03-09T06:17:59.320Z,92.70
2019-03-09T06:20:27.733Z,92.60
2019-03-09T06:22:56.169Z,92.80
2019-03-09T06:25:24.585Z,91.90
2019-03-09T06:27:53.013Z,91.50
2019-03-09T06:30:21.456Z,91.80
2019-03-09T06:33:38.038Z,91.80
2019-03-09T06:36:30.053Z,92.00
2019-03-09T06:39:22.130Z,91.90
2019-03-09T06:41:53.640Z,91.80
2019-03-09T06:44:22.084Z,91.60
2019-03-09T06:46:50.497Z,91.30
2019-03-09T06:49:18.927Z,91.10
2019-03-09T06:51:47.374Z,91.10
2019-03-09T06:54:15.796Z,91.00
2019-03-09T06:56:44.248Z,90.00
2019-03-09T06:59:12.745Z,90.00
2019-03-09T07:01:41.176Z,87.30
2019-03-09T07:04:09.620Z,88.40
2019-03-09T07:06:38.034Z,87.10
2019-03-09T07:09:06.907Z,87.20
2019-03-09T07:11:35.345Z,87.10
2019-03-09T07:14:40.616Z,85.10
2019-03-09T07:17:09.051Z,85.30
2019-03-09T07:19:37.563Z,86.50
2019-03-09T07:22:06.004Z,86.70
2019-03-09T07:24:34.417Z,87.40
2019-03-09T07:27:02.849Z,87.20
2019-03-09T07:29:31.320Z,86.90
2019-03-09T07:31:59.737Z,86.70
2019-03-09T07:34:28.190Z,86.60
2019-03-09T07:36:56.621Z,85.60
2019-03-09T07:39:25.056Z,85.40
2019-03-09T07:41:53.499Z,85.20
2019-03-09T07:44:21.928Z,84.60
2019-03-09T07:46:50.354Z,84.00
2019-03-09T07:49:18.785Z,84.00
2019-03-09T07:51:47.490Z,83.20
2019-03-09T07:54:15.928Z,82.90
2019-03-09T07:56:44.363Z,83.10
2019-03-09T07:59:12.808Z,82.80
2019-03-09T08:01:41.234Z,82.80
2019-03-09T08:04:09.658Z,82.90
2019-03-09T08:06:38.086Z,83.60
2019-03-09T08:09:07.246Z,83.30
2019-03-09T08:11:35.674Z,84.10
2019-03-09T08:14:04.184Z,84.20
2019-03-09T08:16:35.833Z,84.40
2019-03-09T08:19:02.758Z,84.40
2019-03-09T08:21:31.207Z,84.50
2019-03-09T08:23:59.630Z,85.40
2019-03-09T08:26:28.076Z,85.20
2019-03-09T08:28:56.585Z,86.00
2019-03-09T08:31:25.017Z,86.40
2019-03-09T08:33:53.481Z,86.50
2019-03-09T08:36:21.976Z,86.20
2019-03-09T08:38:50.414Z,85.80
2019-03-09T08:41:18.918Z,86.20
2019-03-09T08:43:47.344Z,86.50
2019-03-09T08:46:15.789Z,88.70
2019-03-09T08:48:44.230Z,90.00
2019-03-09T08:51:12.765Z,91.80
2019-03-09T08:53:42.441Z,91.70
2019-03-09T08:56:10.988Z,93.70
2019-03-09T08:58:39.484Z,93.50
2019-03-09T09:01:08.082Z,93.00
2019-03-09T09:03:36.558Z,92.30
2019-03-09T09:06:04.991Z,92.30
2019-03-09T09:08:33.506Z,91.50
2019-03-09T09:11:01.913Z,91.20
2019-03-09T09:13:30.409Z,91.90
2019-03-09T09:15:58.851Z,91.90
2019-03-09T09:18:27.392Z,91.70
2019-03-09T09:20:55.865Z,91.20
2019-03-09T09:23:24.281Z,91.30
2019-03-09T09:25:52.729Z,91.60
2019-03-09T09:28:21.150Z,91.40
2019-03-09T09:30:49.625Z,90.80
2019-03-09T09:33:18.038Z,90.70
2019-03-09T09:35:46.461Z,89.80
2019-03-09T09:38:15.066Z,88.30
2019-03-09T09:40:43.741Z,88.70
2019-03-09T09:43:12.277Z,86.30
2019-03-09T09:45:41.006Z,84.40
2019-03-09T09:48:09.484Z,82.40
2019-03-09T09:50:37.901Z,82.10
2019-03-09T09:53:06.344Z,83.20
2019-03-09T09:55:34.756Z,81.10
2019-03-09T09:58:03.209Z,80.70
2019-03-09T10:00:31.639Z,80.50
2019-03-09T10:03:00.073Z,77.70
2019-03-09T10:05:28.512Z,77.80
2019-03-09T10:07:56.949Z,77.60
2019-03-09T10:10:25.375Z,77.10
2019-03-09T10:12:55.759Z,76.90
2019-03-09T10:15:29.265Z,75.80
2019-03-09T10:17:57.700Z,75.70
2019-03-09T10:20:26.317Z,75.60
2019-03-09T10:23:03.553Z,75.50
2019-03-09T10:25:24.878Z,76.00
2019-03-09T10:27:53.295Z,78.20
2019-03-09T10:30:22.962Z,80.60
2019-03-09T10:32:53.132Z,83.60
2019-03-09T10:35:21.930Z,84.90
2019-03-09T10:37:50.554Z,85.30
2019-03-09T10:40:19.219Z,86.70
2019-03-09T10:42:51.363Z,86.00
2019-03-09T10:45:23.916Z,86.30
2019-03-09T10:47:54.046Z,86.20
2019-03-09T10:50:22.562Z,84.50
2019-03-09T10:52:51.055Z,84.00
2019-03-09T10:55:28.688Z,85.20
2019-03-09T10:57:57.657Z,85.50
2019-03-09T11:00:31.470Z,86.30
2019-03-09T11:03:13.465Z,84.60
2019-03-09T11:05:42.117Z,85.80
2019-03-09T11:08:10.633Z,87.30
2019-03-09T11:10:39.097Z,89.10
2019-03-09T11:13:07.586Z,87.70
2019-03-09T11:15:37.691Z,87.70
2019-03-09T11:18:06.181Z,89.00
2019-03-09T11:20:34.613Z,89.10
2019-03-09T11:23:03.070Z,90.20
2019-03-09T11:25:31.750Z,89.00
2019-03-09T11:28:08.569Z,87.50
2019-03-09T11:30:37.292Z,87.90
2019-03-09T11:33:05.888Z,82.40
2019-03-09T11:35:34.351Z,81.90
2019-03-09T11:38:02.874Z,80.10
2019-03-09T11:40:31.362Z,80.40
2019-03-09T11:43:00.472Z,79.30
2019-03-09T11:45:28.979Z,78.30
2019-03-09T11:47:57.409Z,78.70
2019-03-09T11:50:25.841Z,79.40
2019-03-09T11:52:54.357Z,80.10
2019-03-09T11:55:23.003Z,79.20
2019-03-09T11:57:51.422Z,80.00
2019-03-09T12:00:42.358Z,79.40
2019-03-09T12:03:12.612Z,79.90
2019-03-09T12:05:41.058Z,79.10
2019-03-09T12:08:09.492Z,79.80
2019-03-09T12:10:38.017Z,77.50
2019-03-09T12:13:06.437Z,75.70
2019-03-09T12:15:34.881Z,76.70
2019-03-09T12:18:03.352Z,74.70
2019-03-09T12:20:32.722Z,73.30
2019-03-09T12:23:21.306Z,74.80
2019-03-09T12:25:49.740Z,72.80
2019-03-09T12:28:18.162Z,74.40
2019-03-09T12:30:46.591Z,74.50
2019-03-09T12:33:20.049Z,74.20
2019-03-09T12:35:48.478Z,74.50
2019-03-09T12:38:16.953Z,72.70
2019-03-09T12:40:45.436Z,73.30
2019-03-09T12:43:13.962Z,71.80
2019-03-09T12:45:42.466Z,71.30
2019-03-09T12:48:10.895Z,72.20
2019-03-09T12:50:39.344Z,73.40
2019-03-09T12:53:08.455Z,73.00
2019-03-09T12:55:36.969Z,73.30
2019-03-09T12:58:05.403Z,73.60
2019-03-09T13:00:33.886Z,73.40
2019-03-09T13:03:02.322Z,73.70
2019-03-09T13:05:32.895Z,73.50
2019-03-09T13:08:01.625Z,74.30
2019-03-09T13:10:32.697Z,74.60
2019-03-09T13:13:01.103Z,74.00
2019-03-09T13:15:30.185Z,74.50
2019-03-09T13:17:58.602Z,73.70
2019-03-09T13:20:27.060Z,75.10
2019-03-09T13:22:55.496Z,72.60
2019-03-09T13:25:24.207Z,74.00
2019-03-09T13:27:52.622Z,71.90
2019-03-09T13:30:26.687Z,72.70
2019-03-09T13:32:55.266Z,72.10
2019-03-09T13:35:23.704Z,73.50
2019-03-09T13:37:52.156Z,72.10
2019-03-09T13:40:20.676Z,72.20
2019-03-09T13:42:49.177Z,72.60
2019-03-09T13:45:17.975Z,71.10
2019-03-09T13:47:46.515Z,71.50
2019-03-09T13:50:15.418Z,71.40
2019-03-09T13:52:43.948Z,71.70
2019-03-09T13:55:13.679Z,70.60
2019-03-09T13:57:42.439Z,68.90
2019-03-09T14:00:40.069Z,68.20
2019-03-09T14:03:03.249Z,68.20
2019-03-09T14:05:31.937Z,68.20
2019-03-09T14:08:00.431Z,67.10
2019-03-09T14:10:28.940Z,68.00
2019-03-09T14:12:57.537Z,68.10
2019-03-09T14:15:25.959Z,68.50
2019-03-09T14:17:56.695Z,68.40
2019-03-09T14:20:27.434Z,71.50
2019-03-09T14:22:56.041Z,71.10
2019-03-09T14:25:24.601Z,73.40
2019-03-09T14:27:53.350Z,72.40
2019-03-09T14:30:21.836Z,71.50
2019-03-09T14:32:50.250Z,71.00
2019-03-09T14:35:18.791Z,69.10
2019-03-09T14:37:47.223Z,68.40
2019-03-09T14:40:16.599Z,68.30
2019-03-09T14:42:45.069Z,66.90
2019-03-09T14:45:18.514Z,65.80
2019-03-09T14:47:46.956Z,66.20
2019-03-09T14:50:15.520Z,66.30
2019-03-09T14:52:44.147Z,66.50
2019-03-09T14:55:13.279Z,66.40
2019-03-09T14:57:42.004Z,66.60
2019-03-09T15:00:13.757Z,67.30
2019-03-09T15:02:42.330Z,68.20
2019-03-09T15:05:10.916Z,69.80
2019-03-09T15:07:40.542Z,69.70
2019-03-09T15:10:19.715Z,70.30
2019-03-09T15:12:42.549Z,70.40
2019-03-09T15:15:18.242Z,71.00
2019-03-09T15:17:48.386Z,71.10
2019-03-09T15:20:18.062Z,70.40
2019-03-09T15:22:46.617Z,70.90
2019-03-09T15:25:19.878Z,71.60
2019-03-09T15:27:48.580Z,71.50
2019-03-09T15:30:19.973Z,71.60
2019-03-09T15:32:48.586Z,71.20
2019-03-09T15:35:19.384Z,71.10
2019-03-09T15:37:49.679Z,71.70
2019-03-09T15:40:19.271Z,71.30
2019-03-09T15:42:47.912Z,71.40
2019-03-09T15:45:17.581Z,71.00
2019-03-09T15:47:47.873Z,70.60
2019-03-09T15:50:17.794Z,70.60
2019-03-09T15:52:46.353Z,69.30
2019-03-09T15:55:15.171Z,69.50
2019-03-09T15:57:53.578Z,68.20
2019-03-09T16:00:40.320Z,68.90
2019-03-09T16:02:57.902Z,68.40
2019-03-09T16:05:27.226Z,71.00
2019-03-09T16:07:57.143Z,71.60
2019-03-09T16:10:43.550Z,76.70
2019-03-09T16:13:33.068Z,80.10
2019-03-09T16:15:58.965Z,83.00
2019-03-09T16:18:27.413Z,84.90
2019-03-09T16:20:57.953Z,86.20
2019-03-09T16:23:26.526Z,88.40
2019-03-09T16:25:55.534Z,90.20
2019-03-09T16:28:24.135Z,90.50
2019-03-09T16:30:52.786Z,90.90
2019-03-09T16:33:21.531Z,91.20
2019-03-09T16:35:50.107Z,91.20
2019-03-09T16:38:18.740Z,91.40
2019-03-09T16:40:47.288Z,91.60
2019-03-09T16:43:15.791Z,91.70
2019-03-09T16:45:44.285Z,91.80
2019-03-09T16:48:12.911Z,92.10
2019-03-09T16:50:41.334Z,92.20
2019-03-09T16:53:13.413Z,92.70
2019-03-09T16:55:44.414Z,92.60
2019-03-09T16:58:14.732Z,92.80
2019-03-09T17:00:43.245Z,92.60
2019-03-09T17:03:11.685Z,92.90
2019-03-09T17:05:40.129Z,93.20
2019-03-09T17:08:08.623Z,93.20
2019-03-09T17:10:37.074Z,92.90
2019-03-09T17:13:05.699Z,93.30
2019-03-09T17:15:36.438Z,92.80
2019-03-09T17:18:05.053Z,93.30
2019-03-09T17:20:34.662Z,93.20
2019-03-09T17:23:04.043Z,93.40
2019-03-09T17:25:32.495Z,93.10
2019-03-09T17:28:01.015Z,93.50
2019-03-09T17:30:30.483Z,93.80
2019-03-09T17:32:59.643Z,94.30
2019-03-09T17:35:31.898Z,93.80
2019-03-09T17:37:59.870Z,94.30
2019-03-09T17:40:28.382Z,94.40
2019-03-09T17:42:56.803Z,94.20
2019-03-09T17:45:26.879Z,93.60
2019-03-09T17:47:55.400Z,94.00
2019-03-09T17:50:23.886Z,93.20
2019-03-09T17:52:52.336Z,93.20
2019-03-09T17:55:20.773Z,93.20
2019-03-09T17:57:49.185Z,92.80
2019-03-09T18:00:20.559Z,93.20
2019-03-09T18:02:48.994Z,92.90
2019-03-09T18:05:19.581Z,93.50
2019-03-09T18:07:47.582Z,93.70
2019-03-09T18:10:21.926Z,93.30
2019-03-09T18:12:50.381Z,93.10
2019-03-09T18:15:19.064Z,93.00
2019-03-09T18:17:47.495Z,93.10
2019-03-09T18:20:15.914Z,93.40
2019-03-09T18:22:44.365Z,93.00
2019-03-09T18:25:16.322Z,93.20
2019-03-09T18:27:48.202Z,93.00
2019-03-09T18:30:19.259Z,92.90
2019-03-09T18:32:49.701Z,93.10
2019-03-09T18:35:20.169Z,92.60
2019-03-09T18:37:51.727Z,92.90
2019-03-09T18:40:20.181Z,92.90
2019-03-09T18:42:50.597Z,93.00
2019-03-09T18:45:26.189Z,93.10
2019-03-09T18:47:58.928Z,93.20
2019-03-09T18:50:30.641Z,93.20
2019-03-09T18:52:59.063Z,93.50
2019-03-09T18:55:31.643Z,93.20
2019-03-09T18:58:01.273Z,93.30
2019-03-09T19:00:30.767Z,93.20
2019-03-09T19:03:03.267Z,93.20
2019-03-09T19:05:34.338Z,92.90
2019-03-09T19:08:04.980Z,93.20
2019-03-09T19:10:37.166Z,93.00
2019-03-09T19:13:08.254Z,92.70
2019-03-09T19:15:46.757Z,92.60
2019-03-09T19:18:18.389Z,92.70
2019-03-09T19:20:50.065Z,92.50
2019-03-09T19:23:19.365Z,92.60
2019-03-09T19:25:50.128Z,92.50
2019-03-09T19:28:23.414Z,92.40
2019-03-09T19:30:54.934Z,92.10
2019-03-09T19:33:25.213Z,92.10
2019-03-09T19:35:56.044Z,92.10
2019-03-09T19:38:28.015Z,91.90
2019-03-09T19:40:58.156Z,91.60
2019-03-09T19:43:28.715Z,91.40
2019-03-09T19:45:59.749Z,91.30
2019-03-09T19:48:29.972Z,91.10
2019-03-09T19:51:00.595Z,90.90
2019-03-09T19:53:38.976Z,90.60
2019-03-09T19:56:12.388Z,90.60
2019-03-09T19:58:41.317Z,90.10
2019-03-09T20:01:09.769Z,89.90
2019-03-09T20:03:38.729Z,90.20
2019-03-09T20:06:07.821Z,90.20
2019-03-09T20:08:57.661Z,89.80
2019-03-09T20:11:26.937Z,89.70
2019-03-09T20:13:56.375Z,89.40
2019-03-09T20:16:25.669Z,89.50
2019-03-09T20:18:55.120Z,89.00
2019-03-09T20:21:24.028Z,88.70
2019-03-09T20:23:53.032Z,88.70
2019-03-09T20:26:21.971Z,87.30
2019-03-09T20:28:51.052Z,87.50
2019-03-09T20:31:19.917Z,87.10
2019-03-09T20:33:48.365Z,87.10
2019-03-09T20:36:16.865Z,86.70
2019-03-09T20:38:45.382Z,86.00
2019-03-09T20:41:13.888Z,86.30
2019-03-09T20:43:42.328Z,86.00
2019-03-09T20:46:10.754Z,86.20
2019-03-09T20:48:39.173Z,86.40
2019-03-09T20:51:07.621Z,86.60
2019-03-09T20:53:36.059Z,86.70
2019-03-09T20:56:04.526Z,86.40
2019-03-09T20:58:33.075Z,86.60
2019-03-09T21:01:01.638Z,85.90
2019-03-09T21:03:30.206Z,85.90
2019-03-09T21:05:58.770Z,86.20
2019-03-09T21:08:27.389Z,85.60
2019-03-09T21:11:03.392Z,85.60
2019-03-09T21:13:26.246Z,86.00
2019-03-09T21:15:56.401Z,86.20
2019-03-09T21:18:25.629Z,85.90
2019-03-09T21:20:54.289Z,85.90
2019-03-09T21:23:22.794Z,85.80
2019-03-09T21:25:51.666Z,85.50
2019-03-09T21:28:20.265Z,85.70
2019-03-09T21:30:48.713Z,85.80
2019-03-09T21:33:18.850Z,85.80
2019-03-09T21:35:48.907Z,88.00
2019-03-09T21:38:18.704Z,88.20
2019-03-09T21:40:47.143Z,90.10
2019-03-09T21:43:16.219Z,91.30
2019-03-09T21:45:45.522Z,92.90
2019-03-09T21:48:14.025Z,93.90
2019-03-09T21:50:43.133Z,94.60
2019-03-09T21:53:13.425Z,94.50
2019-03-09T21:55:43.659Z,94.40
2019-03-09T21:58:13.222Z,94.00
2019-03-09T22:00:42.739Z,93.40
2019-03-09T22:03:12.674Z,92.60
2019-03-09T22:05:42.065Z,91.40
2019-03-09T22:08:10.518Z,91.40
2019-03-09T22:10:38.944Z,91.60
2019-03-09T22:13:07.397Z,91.50
2019-03-09T22:15:35.837Z,91.60
2019-03-09T22:18:04.521Z,91.30
2019-03-09T22:20:32.950Z,91.20
2019-03-09T22:23:01.366Z,90.90
2019-03-09T22:25:29.902Z,90.60
2019-03-09T22:27:58.353Z,90.40
2019-03-09T22:30:26.846Z,90.60
2019-03-09T22:32:55.286Z,90.20
2019-03-09T22:35:23.748Z,90.40
2019-03-09T22:37:52.259Z,90.20
2019-03-09T22:40:20.905Z,89.80
2019-03-09T22:42:49.389Z,90.00
2019-03-09T22:45:18.142Z,89.50
2019-03-09T22:47:46.631Z,90.30
2019-03-09T22:50:23.718Z,90.00
2019-03-09T22:52:52.221Z,89.00
2019-03-09T22:55:20.665Z,89.40
2019-03-09T22:57:49.158Z,90.00
2019-03-09T23:00:26.487Z,90.20
2019-03-09T23:02:55.002Z,89.10
2019-03-09T23:05:23.618Z,89.20
2019-03-09T23:07:52.068Z,89.80
2019-03-09T23:10:24.710Z,89.80
2019-03-09T23:12:53.208Z,90.10
2019-03-09T23:15:21.634Z,90.40
2019-03-09T23:17:50.056Z,90.50
2019-03-09T23:20:18.572Z,90.50
2019-03-09T23:22:47.081Z,90.70
2019-03-09T23:25:16.109Z,90.60
2019-03-09T23:27:44.725Z,91.00
2019-03-09T23:30:18.507Z,90.90
2019-03-09T23:32:46.955Z,91.30
2019-03-09T23:35:15.977Z,91.10
2019-03-09T23:37:45.368Z,91.20
2019-03-09T23:40:18.784Z,91.10
2019-03-09T23:42:47.269Z,91.30
2019-03-09T23:45:18.423Z,91.30
2019-03-09T23:47:46.983Z,91.20
2019-03-09T23:50:16.852Z,91.60
2019-03-09T23:52:45.633Z,91.60
2019-03-09T23:55:22.185Z,91.60
2019-03-09T23:57:45.666Z,91.60
